Kaiwo Maru — JMMU — position and weather

sailwx.info

Track history (hours):
 
Tides and Currents Weather Stations Pressure Air Temp Water Temp Dewpoint Dewpoint Depression Visibility Wind Speed Wind Dir Waves Ship Positions

Kaiwo Maru (Japan)

Built in 1989. Trains merchant marine cadets for Japan's National Institute for Sea Training.

Ship's website: http://www.kohkun.go.jp/en/ships/kaiwomaru.html

Last reported at 2019-Dec-08 09:58 UTC. Time now 2019-Dec-08 11:00 UTC.
Position N 35°29' E 139°41'.

Length 110.1 m; beam 13.8 m; draft 6 m.

Type: Sailing vessel. MMSI: 431006000.

Date/timePositionNaut miles runAvg speedWind from/ knotsBaromVisibWave heightAir tempDewpointWater temp
2019-Dec-08 09:58N 35°29' E 139°41'0 0.0
2019-Dec-08 08:58N 35°29' E 139°41'0 0.0
2019-Dec-08 03:28N 35°29' E 139°41'0 0.0
2019-Dec-08 02:58N 35°29' E 139°41'0 0.0
2019-Dec-08 02:28N 35°29' E 139°41'0 0.0
2019-Dec-08 01:28N 35°29' E 139°41'0 0.0
2019-Dec-07 23:55N 35°29' E 139°41'0 0.0
2019-Dec-07 23:25N 35°29' E 139°41'0 0.0
2019-Dec-07 21:28N 35°29' E 139°41'0 0.0
2019-Dec-07 20:28N 35°29' E 139°41'6 1.3
2019-Dec-07 15:29N 35°28' E 139°49'6 5.9
2019-Dec-07 14:30N 35°24' E 139°45'0 0.1
2019-Dec-07 14:00N 35°24' E 139°45'0 0.0
2019-Dec-07 10:30N 35°24' E 139°45'0 0.0
2019-Dec-07 09:30N 35°24' E 139°45'0 0.0
2019-Dec-07 08:30N 35°24' E 139°45'0 0.0
2019-Dec-07 07:00N 35°24' E 139°45'0 0.0
2019-Dec-07 06:27N 35°24' E 139°45'0 0.0
2019-Dec-07 04:30N 35°24' E 139°45'0 0.0
2019-Dec-07 02:54N 35°24' E 139°45'0 0.0
2019-Dec-07 00:57N 35°24' E 139°45'0 0.1
2019-Dec-07 00:00N 35°24' E 139°45'0 0.0
2019-Dec-06 23:30N 35°24' E 139°45'0 0.0
2019-Dec-06 21:30N 35°24' E 139°45'0 0.0
2019-Dec-06 21:00N 35°24' E 139°45'0 0.0
2019-Dec-06 20:00N 35°24' E 139°45'0 0.0
2019-Dec-06 19:30N 35°24' E 139°45'0 0.0
2019-Dec-06 18:00N 35°24' E 139°45'0 0.0
2019-Dec-06 17:00N 35°24' E 139°45'0 0.0
2019-Dec-06 15:57N 35°24' E 139°45'0 0.0
2019-Dec-06 14:30N 35°24' E 139°45'0 0.0
2019-Dec-06 14:00N 35°24' E 139°45'0 0.0
2019-Dec-06 13:00N 35°24' E 139°45'0 0.1
2019-Dec-06 12:30N 35°24' E 139°45'0 0.0
2019-Dec-06 12:00N 35°24' E 139°45'0 0.0
2019-Dec-06 11:00N 35°24' E 139°45'0 0.0
2019-Dec-06 06:51N 35°24' E 139°45'0 0.0
2019-Dec-06 06:30N 35°24' E 139°45'0 0.0
2019-Dec-06 04:27N 35°24' E 139°45'0 0.0
2019-Dec-06 02:00N 35°24' E 139°45'0 0.0
2019-Dec-06 01:27N 35°24' E 139°45'0 0.0
2019-Dec-05 22:30N 35°24' E 139°45'0 0.0
2019-Dec-05 19:30N 35°24' E 139°45'0 0.0
2019-Dec-05 18:30N 35°24' E 139°45'0 0.0
2019-Dec-05 17:30N 35°24' E 139°45'0 0.0
2019-Dec-05 16:30N 35°24' E 139°45'0 0.0
2019-Dec-05 15:30N 35°24' E 139°45'0 0.0
2019-Dec-05 13:30N 35°24' E 139°45'0 0.0
2019-Dec-05 13:00N 35°24' E 139°45'0 0.0
2019-Dec-05 09:00N 35°24' E 139°45'0 0.0
2019-Dec-05 06:00N 35°24' E 139°45'0 0.0
2019-Dec-05 05:30N 35°24' E 139°45'0 0.0
2019-Dec-05 05:00N 35°24' E 139°45'0 0.0
2019-Dec-05 02:00N 35°24' E 139°45'0 0.0
2019-Dec-05 01:00N 35°24' E 139°45'0 0.0
2019-Dec-04 19:00N 35°24' E 139°45'0 0.0
2019-Dec-04 16:57N 35°24' E 139°45'0 0.0
2019-Dec-04 11:57N 35°24' E 139°45'0 0.0
2019-Dec-04 09:30N 35°24' E 139°45'0 0.0
2019-Dec-04 08:30N 35°24' E 139°45'0 0.0
2019-Dec-04 06:30N 35°24' E 139°45'0 0.0
2019-Dec-04 05:27N 35°24' E 139°45'0 0.1
2019-Dec-04 05:00N 35°24' E 139°45'0 0.0
2019-Dec-04 04:00N 35°24' E 139°45'0 0.0
2019-Dec-04 03:30N 35°24' E 139°45'2 2.5
2019-Dec-04 02:31N 35°22' E 139°44'7 9.0
2019-Dec-04 01:47N 35°15' E 139°47'  
2019-Dec-01 05:15N 35°13' E 139°44'1 3.8
2019-Dec-01 05:00N 35°12' E 139°45'8 7.2
2019-Dec-01 03:56N 35°05' E 139°42'238 8.2
2019-Nov-29 22:55N 34°05' E 135°02'7 4.8
2019-Nov-29 21:29N 34°09' E 135°08'0 0.0
2019-Nov-29 20:59N 34°09' E 135°08'0 0.0
2019-Nov-29 20:26N 34°09' E 135°08'0 0.0
2019-Nov-29 19:29N 34°09' E 135°08'0 0.0
2019-Nov-29 17:59N 34°09' E 135°08'0 0.0
2019-Nov-29 17:29N 34°09' E 135°08'0 0.0
2019-Nov-29 16:29N 34°09' E 135°08'0 0.0
2019-Nov-29 15:59N 34°09' E 135°08'0 0.0
2019-Nov-29 15:29N 34°09' E 135°08'0 0.0
2019-Nov-29 13:59N 34°09' E 135°08'0 0.0
2019-Nov-29 11:59N 34°09' E 135°08'0 0.0
2019-Nov-29 11:29N 34°09' E 135°08'0 0.0
2019-Nov-29 09:29N 34°09' E 135°08'0 0.0
2019-Nov-29 07:23N 34°09' E 135°08'0 1.0
2019-Nov-29 07:00N 34°10' E 135°08'5 9.3
2019-Nov-29 06:30N 34°12' E 135°03'14 9.4
2019-Nov-29 05:00N 34°26' E 135°01'510.3
2019-Nov-29 04:30N 34°31' E 135°03'7 6.5
2019-Nov-29 03:27N 34°36' E 134°57'8 8.5
2019-Nov-29 02:30N 34°32' E 134°48'4 8.4
2019-Nov-29 02:00N 34°31' E 134°43'15 9.6
2019-Nov-29 00:26N 34°25' E 134°26'  
Track history (hours):
 
Tides and Currents Weather Stations Pressure Air Temp Water Temp Dewpoint Dewpoint Depression Visibility Wind Speed Wind Dir Waves Ship Positions

Kaiwo Maru (Japan)

Built in 1989. Trains merchant marine cadets for Japan's National Institute for Sea Training.

Ship's website: http://www.kohkun.go.jp/en/ships/kaiwomaru.html

Last reported at 2019-Dec-08 09:58 UTC. Time now 2019-Dec-08 11:00 UTC.
Position N 35°29' E 139°41'.

Length 110.1 m; beam 13.8 m; draft 6 m.

Type: Sailing vessel. MMSI: 431006000.

Date/timePositionNaut miles runAvg speedWind from/ knotsBaromVisibWave heightAir tempDewpointWater temp
2019-Dec-08 09:58N 35°29' E 139°41'0 0.0
2019-Dec-08 08:58N 35°29' E 139°41'0 0.0
2019-Dec-08 03:28N 35°29' E 139°41'0 0.0
2019-Dec-08 02:58N 35°29' E 139°41'0 0.0
2019-Dec-08 02:28N 35°29' E 139°41'0 0.0
2019-Dec-08 01:28N 35°29' E 139°41'0 0.0
2019-Dec-07 23:55N 35°29' E 139°41'0 0.0
2019-Dec-07 23:25N 35°29' E 139°41'0 0.0
2019-Dec-07 21:28N 35°29' E 139°41'0 0.0
2019-Dec-07 20:28N 35°29' E 139°41'6 1.3
2019-Dec-07 15:29N 35°28' E 139°49'6 5.9
2019-Dec-07 14:30N 35°24' E 139°45'0 0.1
2019-Dec-07 14:00N 35°24' E 139°45'0 0.0
2019-Dec-07 10:30N 35°24' E 139°45'0 0.0
2019-Dec-07 09:30N 35°24' E 139°45'0 0.0
2019-Dec-07 08:30N 35°24' E 139°45'0 0.0
2019-Dec-07 07:00N 35°24' E 139°45'0 0.0
2019-Dec-07 06:27N 35°24' E 139°45'0 0.0
2019-Dec-07 04:30N 35°24' E 139°45'0 0.0
2019-Dec-07 02:54N 35°24' E 139°45'0 0.0
2019-Dec-07 00:57N 35°24' E 139°45'0 0.1
2019-Dec-07 00:00N 35°24' E 139°45'0 0.0
2019-Dec-06 23:30N 35°24' E 139°45'0 0.0
2019-Dec-06 21:30N 35°24' E 139°45'0 0.0
2019-Dec-06 21:00N 35°24' E 139°45'0 0.0
2019-Dec-06 20:00N 35°24' E 139°45'0 0.0
2019-Dec-06 19:30N 35°24' E 139°45'0 0.0
2019-Dec-06 18:00N 35°24' E 139°45'0 0.0
2019-Dec-06 17:00N 35°24' E 139°45'0 0.0
2019-Dec-06 15:57N 35°24' E 139°45'0 0.0
2019-Dec-06 14:30N 35°24' E 139°45'0 0.0
2019-Dec-06 14:00N 35°24' E 139°45'0 0.0
2019-Dec-06 13:00N 35°24' E 139°45'0 0.1
2019-Dec-06 12:30N 35°24' E 139°45'0 0.0
2019-Dec-06 12:00N 35°24' E 139°45'0 0.0
2019-Dec-06 11:00N 35°24' E 139°45'0 0.0
2019-Dec-06 06:51N 35°24' E 139°45'0 0.0
2019-Dec-06 06:30N 35°24' E 139°45'0 0.0
2019-Dec-06 04:27N 35°24' E 139°45'0 0.0
2019-Dec-06 02:00N 35°24' E 139°45'0 0.0
2019-Dec-06 01:27N 35°24' E 139°45'0 0.0
2019-Dec-05 22:30N 35°24' E 139°45'0 0.0
2019-Dec-05 19:30N 35°24' E 139°45'0 0.0
2019-Dec-05 18:30N 35°24' E 139°45'0 0.0
2019-Dec-05 17:30N 35°24' E 139°45'0 0.0
2019-Dec-05 16:30N 35°24' E 139°45'0 0.0
2019-Dec-05 15:30N 35°24' E 139°45'0 0.0
2019-Dec-05 13:30N 35°24' E 139°45'0 0.0
2019-Dec-05 13:00N 35°24' E 139°45'0 0.0
2019-Dec-05 09:00N 35°24' E 139°45'0 0.0
2019-Dec-05 06:00N 35°24' E 139°45'0 0.0
2019-Dec-05 05:30N 35°24' E 139°45'0 0.0
2019-Dec-05 05:00N 35°24' E 139°45'0 0.0
2019-Dec-05 02:00N 35°24' E 139°45'0 0.0
2019-Dec-05 01:00N 35°24' E 139°45'0 0.0
2019-Dec-04 19:00N 35°24' E 139°45'0 0.0
2019-Dec-04 16:57N 35°24' E 139°45'0 0.0
2019-Dec-04 11:57N 35°24' E 139°45'0 0.0
2019-Dec-04 09:30N 35°24' E 139°45'0 0.0
2019-Dec-04 08:30N 35°24' E 139°45'0 0.0
2019-Dec-04 06:30N 35°24' E 139°45'0 0.0
2019-Dec-04 05:27N 35°24' E 139°45'0 0.1
2019-Dec-04 05:00N 35°24' E 139°45'0 0.0
2019-Dec-04 04:00N 35°24' E 139°45'0 0.0
2019-Dec-04 03:30N 35°24' E 139°45'2 2.5
2019-Dec-04 02:31N 35°22' E 139°44'7 9.0
2019-Dec-04 01:47N 35°15' E 139°47'  
2019-Dec-01 05:15N 35°13' E 139°44'1 3.8
2019-Dec-01 05:00N 35°12' E 139°45'8 7.2
2019-Dec-01 03:56N 35°05' E 139°42'238 8.2
2019-Nov-29 22:55N 34°05' E 135°02'7 4.8
2019-Nov-29 21:29N 34°09' E 135°08'0 0.0
2019-Nov-29 20:59N 34°09' E 135°08'0 0.0
2019-Nov-29 20:26N 34°09' E 135°08'0 0.0
2019-Nov-29 19:29N 34°09' E 135°08'0 0.0
2019-Nov-29 17:59N 34°09' E 135°08'0 0.0
2019-Nov-29 17:29N 34°09' E 135°08'0 0.0
2019-Nov-29 16:29N 34°09' E 135°08'0 0.0
2019-Nov-29 15:59N 34°09' E 135°08'0 0.0
2019-Nov-29 15:29N 34°09' E 135°08'0 0.0
2019-Nov-29 13:59N 34°09' E 135°08'0 0.0
2019-Nov-29 11:59N 34°09' E 135°08'0 0.0
2019-Nov-29 11:29N 34°09' E 135°08'0 0.0
2019-Nov-29 09:29N 34°09' E 135°08'0 0.0
2019-Nov-29 07:23N 34°09' E 135°08'0 1.0
2019-Nov-29 07:00N 34°10' E 135°08'5 9.3
2019-Nov-29 06:30N 34°12' E 135°03'14 9.4
2019-Nov-29 05:00N 34°26' E 135°01'510.3
2019-Nov-29 04:30N 34°31' E 135°03'7 6.5
2019-Nov-29 03:27N 34°36' E 134°57'8 8.5
2019-Nov-29 02:30N 34°32' E 134°48'4 8.4
2019-Nov-29 02:00N 34°31' E 134°43'15 9.6
2019-Nov-29 00:26N 34°25' E 134°26'  

Dump ship's entire track history